createdAt,value
2019-04-14T00:04:03.462Z,3.58
2019-04-14T00:09:14.247Z,2.95
2019-04-14T00:14:16.961Z,2.67
2019-04-14T00:19:17.401Z,2.43
2019-04-14T00:24:18.448Z,2.98
2019-04-14T00:29:19.498Z,2.46
2019-04-14T00:34:18.097Z,3.02
2019-04-14T00:39:32.246Z,3.42
2019-04-14T00:44:38.675Z,3.10
2019-04-14T00:49:37.605Z,3.57
2019-04-14T00:54:49.957Z,2.66
2019-04-14T00:59:48.747Z,2.64
2019-04-14T01:04:46.948Z,3.16
2019-04-14T01:09:57.567Z,2.66
2019-04-14T01:14:58.163Z,2.79
2019-04-14T01:20:12.514Z,2.76
2019-04-14T01:25:19.724Z,2.71
2019-04-14T01:30:35.108Z,2.88
2019-04-14T01:35:37.944Z,3.74
2019-04-14T01:40:44.517Z,4.35
2019-04-14T01:45:58.144Z,2.07
2019-04-14T01:50:51.882Z,2.47
2019-04-14T01:55:54.878Z,3.90
2019-04-14T02:00:59.649Z,3.31
2019-04-14T02:06:09.312Z,2.85
2019-04-14T02:11:03.007Z,2.42
2019-04-14T02:16:18.831Z,2.07
2019-04-14T02:21:12.804Z,2.36
2019-04-14T02:26:17.642Z,2.66
2019-04-14T02:31:30.098Z,1.80
2019-04-14T02:36:58.461Z,1.81
2019-04-14T02:52:04.804Z,1.80
2019-04-14T02:57:15.061Z,3.60
2019-04-14T03:02:30.539Z,2.14
2019-04-14T03:07:19.160Z,1.97
2019-04-14T03:12:29.133Z,1.75
2019-04-14T03:27:39.974Z,1.73
2019-04-14T03:42:56.645Z,1.82
2019-04-14T03:52:57.673Z,1.93
2019-04-14T03:57:36.618Z,2.16
2019-04-14T04:02:49.212Z,2.08
2019-04-14T04:07:38.982Z,1.96
2019-04-14T04:12:46.699Z,1.70
2019-04-14T04:17:58.025Z,2.41
2019-04-14T04:22:52.263Z,2.32
2019-04-14T04:28:08.517Z,2.56
2019-04-14T04:33:08.683Z,2.63
2019-04-14T04:38:09.529Z,3.07
2019-04-14T04:43:25.897Z,4.09
2019-04-14T04:48:17.310Z,2.18
2019-04-14T04:53:20.164Z,3.46
2019-04-14T04:58:21.526Z,1.83
2019-04-14T05:03:36.393Z,1.86
2019-04-14T05:08:26.200Z,2.16
2019-04-14T05:13:46.717Z,1.88
2019-04-14T05:18:58.449Z,1.54
2019-04-14T05:23:49.462Z,2.43
2019-04-14T05:28:50.766Z,2.59
2019-04-14T05:33:53.857Z,3.04
2019-04-14T05:38:56.165Z,2.86
2019-04-14T05:44:01.203Z,2.12
2019-04-14T05:49:06.574Z,2.06
2019-04-14T05:54:14.549Z,2.30
2019-04-14T05:59:13.486Z,2.25
2019-04-14T06:04:24.237Z,1.87
2019-04-14T06:09:31.102Z,1.90
2019-04-14T06:14:49.256Z,2.20
2019-04-14T06:19:51.464Z,1.68
2019-04-14T06:24:57.693Z,1.88
2019-04-14T06:29:59.558Z,1.61
2019-04-14T06:35:00.406Z,2.63
2019-04-14T06:40:07.617Z,2.20
2019-04-14T06:45:19.045Z,1.97
2019-04-14T06:50:11.823Z,2.08
2019-04-14T06:55:18.456Z,1.86
2019-04-14T07:00:27.807Z,1.75
2019-04-14T07:05:35.596Z,1.97
2019-04-14T07:10:49.381Z,2.35
2019-04-14T07:15:48.390Z,3.11
2019-04-14T07:20:53.931Z,3.60
2019-04-14T07:25:56.542Z,3.25
2019-04-14T07:31:00.554Z,3.67
2019-04-14T07:41:03.595Z,4.10
2019-04-14T07:46:12.969Z,4.41
2019-04-14T07:51:15.330Z,3.38
2019-04-14T07:56:32.207Z,3.86
2019-04-14T08:01:33.706Z,3.32
2019-04-14T08:06:42.536Z,2.71
2019-04-14T08:11:44.422Z,2.99
2019-04-14T08:16:43.372Z,3.07
2019-04-14T08:21:45.783Z,2.68
2019-04-14T08:26:44.441Z,2.80
2019-04-14T08:37:08.193Z,3.13
2019-04-14T08:42:11.011Z,4.25
2019-04-14T08:47:21.786Z,4.12
2019-04-14T08:52:16.468Z,3.75
2019-04-14T08:57:16.831Z,4.52
2019-04-14T09:02:18.117Z,4.24
2019-04-14T09:07:28.702Z,4.70
2019-04-14T09:12:28.174Z,4.07
2019-04-14T09:17:30.710Z,4.17
2019-04-14T09:22:30.580Z,4.63
2019-04-14T09:27:40.967Z,5.25
2019-04-14T09:32:43.931Z,5.02
2019-04-14T09:37:44.276Z,4.52
2019-04-14T09:42:44.641Z,9.17
2019-04-14T09:47:44.466Z,2.93
2019-04-14T09:53:01.144Z,1.92
2019-04-14T09:57:59.743Z,1.59
2019-04-14T10:03:12.297Z,1.83
2019-04-14T10:08:17.192Z,2.30
2019-04-14T10:13:40.922Z,2.00
2019-04-14T10:18:22.399Z,2.12
2019-04-14T10:23:22.442Z,3.29
2019-04-14T10:28:21.987Z,3.09
2019-04-14T10:33:38.776Z,4.22
2019-04-14T10:38:41.087Z,2.46
2019-04-14T10:43:44.121Z,7.93
2019-04-14T10:48:44.095Z,3.23
2019-04-14T10:53:52.710Z,2.28
2019-04-14T10:59:02.736Z,3.00
2019-04-14T11:04:01.340Z,2.30
2019-04-14T11:09:12.286Z,2.67
2019-04-14T11:14:22.266Z,2.97
2019-04-14T11:19:23.337Z,2.45
2019-04-14T11:24:24.765Z,3.08
2019-04-14T11:29:37.074Z,2.68
2019-04-14T11:34:41.328Z,2.71
2019-04-14T11:39:32.124Z,2.73
2019-04-14T11:44:36.744Z,3.18
2019-04-14T11:49:38.035Z,3.11
2019-04-14T11:54:37.250Z,2.65
2019-04-14T11:59:46.939Z,2.67
2019-04-14T12:04:45.444Z,2.07
2019-04-14T12:09:55.466Z,1.86
2019-04-14T12:15:16.446Z,2.24
2019-04-14T12:20:02.878Z,2.12
2019-04-14T12:25:18.275Z,2.95
2019-04-14T12:30:22.393Z,2.82
2019-04-14T12:35:18.504Z,4.54
2019-04-14T12:40:26.570Z,4.56
2019-04-14T12:45:38.189Z,6.51
2019-04-14T12:50:40.993Z,6.92
2019-04-14T12:55:38.184Z,7.31
2019-04-14T13:00:56.049Z,7.16
2019-04-14T13:05:58.395Z,6.84
2019-04-14T13:11:15.967Z,6.24
2019-04-14T13:16:17.657Z,6.83
2019-04-14T13:21:06.031Z,6.38
2019-04-14T13:26:16.550Z,6.61
2019-04-14T13:31:31.927Z,9.10
2019-04-14T13:36:37.071Z,12.03
2019-04-14T13:41:45.113Z,9.12
2019-04-14T13:46:45.567Z,8.91
2019-04-14T13:51:48.799Z,11.11
2019-04-14T13:56:56.343Z,8.31
2019-04-14T14:02:03.999Z,6.78
2019-04-14T14:07:01.421Z,6.69
2019-04-14T14:12:11.182Z,7.28
2019-04-14T14:17:11.522Z,6.80
2019-04-14T14:22:30.210Z,7.27
2019-04-14T14:27:18.866Z,6.98
2019-04-14T14:32:37.180Z,7.24
2019-04-14T14:37:29.053Z,7.18
2019-04-14T14:42:32.143Z,7.10
2019-04-14T14:47:31.061Z,6.74
2019-04-14T14:52:42.660Z,6.54
2019-04-14T14:57:48.413Z,6.03
2019-04-14T15:02:55.275Z,5.12
2019-04-14T15:07:54.718Z,5.62
2019-04-14T15:13:07.026Z,8.92
2019-04-14T15:18:07.378Z,5.11
2019-04-14T15:23:04.521Z,5.65
2019-04-14T15:28:06.669Z,6.31
2019-04-14T15:33:10.115Z,5.42
2019-04-14T15:38:17.738Z,5.56
2019-04-14T15:43:27.713Z,5.17
2019-04-14T15:48:20.722Z,6.12
2019-04-14T15:53:23.295Z,5.48
2019-04-14T15:58:30.386Z,5.24
2019-04-14T16:03:42.875Z,5.76
2019-04-14T16:08:39.618Z,5.32
2019-04-14T16:13:45.192Z,5.50
2019-04-14T16:18:45.355Z,5.79
2019-04-14T16:23:50.612Z,5.57
2019-04-14T16:28:55.019Z,5.24
2019-04-14T16:34:09.001Z,5.88
2019-04-14T16:39:19.396Z,5.67
2019-04-14T16:44:17.541Z,6.06
2019-04-14T16:49:15.846Z,5.53
2019-04-14T16:54:38.044Z,3.12
2019-04-14T16:59:31.540Z,3.24
2019-04-14T17:04:35.198Z,3.14
2019-04-14T17:09:33.491Z,2.98
2019-04-14T17:14:44.063Z,3.05
2019-04-14T17:19:43.014Z,2.94
2019-04-14T17:24:55.922Z,3.43
2019-04-14T17:29:55.702Z,3.17
2019-04-14T17:35:01.363Z,2.96
2019-04-14T17:40:20.157Z,2.63
2019-04-14T17:45:23.836Z,3.37
2019-04-14T17:50:39.696Z,3.60
2019-04-14T17:55:34.578Z,3.63
2019-04-14T18:00:45.326Z,4.07
2019-04-14T18:05:39.938Z,14.31
2019-04-14T18:10:44.282Z,6.91
2019-04-14T18:16:04.014Z,4.02
2019-04-14T18:20:58.464Z,3.29
2019-04-14T18:26:04.676Z,3.28
2019-04-14T18:31:16.595Z,2.95
2019-04-14T18:36:12.171Z,6.34
2019-04-14T18:41:19.970Z,4.08
2019-04-14T18:46:22.430Z,3.76
2019-04-14T18:51:28.048Z,4.19
2019-04-14T18:56:29.139Z,4.25
2019-04-14T19:01:37.467Z,4.21
2019-04-14T19:06:40.848Z,3.37
2019-04-14T19:11:48.028Z,3.99
2019-04-14T19:16:53.217Z,8.41
2019-04-14T19:22:05.580Z,13.54
2019-04-14T19:26:53.415Z,6.04
2019-04-14T19:32:11.153Z,3.48
2019-04-14T19:37:08.575Z,4.66
2019-04-14T19:42:17.111Z,3.58
2019-04-14T19:47:20.731Z,2.99
2019-04-14T19:52:28.028Z,3.68
2019-04-14T19:57:38.633Z,3.50
2019-04-14T20:02:29.857Z,2.99
2019-04-14T20:07:34.214Z,4.33
2019-04-14T20:12:40.958Z,3.84
2019-04-14T20:18:03.958Z,2.97
2019-04-14T20:22:48.312Z,2.34
2019-04-14T20:27:47.767Z,3.15
2019-04-14T20:32:57.078Z,3.00
2019-04-14T20:38:07.304Z,2.57
2019-04-14T20:43:15.092Z,2.60
2019-04-14T20:48:20.446Z,2.45
2019-04-14T20:53:25.090Z,2.34
2019-04-14T20:58:24.583Z,2.14
2019-04-14T21:03:26.453Z,2.99
2019-04-14T21:08:28.065Z,4.05
2019-04-14T21:13:30.793Z,4.05
2019-04-14T21:18:39.325Z,3.77
2019-04-14T21:23:53.995Z,4.13
2019-04-14T21:28:44.607Z,4.22
2019-04-14T21:33:53.907Z,2.78
2019-04-14T21:38:53.628Z,3.43
2019-04-14T21:44:05.548Z,4.69
2019-04-14T21:49:03.933Z,3.54
2019-04-14T21:54:26.085Z,4.33
2019-04-14T21:59:15.323Z,3.32
2019-04-14T22:04:24.892Z,3.29
2019-04-14T22:09:23.442Z,3.73
2019-04-14T22:19:42.881Z,3.25
2019-04-14T22:24:43.083Z,3.20
2019-04-14T22:29:45.067Z,3.20
2019-04-14T22:34:46.219Z,3.62
2019-04-14T22:39:47.778Z,3.13
2019-04-14T22:44:47.669Z,2.91
2019-04-14T22:49:48.923Z,3.16
2019-04-14T22:54:56.727Z,2.80
2019-04-14T22:59:54.452Z,3.30
2019-04-14T23:05:04.136Z,3.14
2019-04-14T23:10:38.325Z,3.72
2019-04-14T23:15:27.344Z,3.25
2019-04-14T23:20:41.380Z,2.97
2019-04-14T23:25:32.035Z,2.85
2019-04-14T23:30:50.089Z,2.69
2019-04-14T23:36:00.025Z,2.63
2019-04-14T23:40:58.585Z,3.37
2019-04-14T23:46:07.089Z,2.71
2019-04-14T23:51:07.969Z,3.23
2019-04-14T23:56:18.211Z,3.48
